Naikai2 — JD2433 — position and weather

sailwx.info

Track history (hours):
 
Tides and Currents Weather Stations Pressure Air Temp Water Temp Dewpoint Dewpoint Depression Visibility Wind Speed Wind Dir Waves Ship Positions

Naikai2

Last reported at 2014-Dec-21 00:17 UTC. Time now 2014-Dec-21 01:54 UTC.
Position N 34°38' E 135°10'.

Length 28 m; draft 2.2 m.

Type: Other ship. MMSI: 431000283.

Date/timePositionNaut miles runAvg speedWind from/ knotsBaromVisibWave heightAir tempDewpointWater temp
2014-Dec-21 00:17N 34°38' E 135°10'811.4
2014-Dec-20 23:33N 34°35' E 135°20'5 5.2
2014-Dec-20 22:32N 34°33' E 135°25'7 7.2
2014-Dec-20 21:33N 34°32' E 135°17'1312.1
2014-Dec-20 20:29N 34°23' E 135°06'1212.1
2014-Dec-20 19:32N 34°12' E 135°00'8 7.8
2014-Dec-20 18:33N 34°20' E 134°57'3 0.2
2014-Dec-20 07:22N 34°21' E 135°00'1214.2
2014-Dec-20 06:33N 34°29' E 135°10'1111.4
2014-Dec-20 05:33N 34°33' E 135°23'0 0.4
2014-Dec-20 04:33N 34°34' E 135°23'1212.1
2014-Dec-20 03:33N 34°39' E 135°10'0 0.1
2014-Dec-20 02:33N 34°39' E 135°10'0 0.0
2014-Dec-20 01:33N 34°39' E 135°10'1 0.0
2014-Dec-19 05:34N 34°38' E 135°10'1212.2
2014-Dec-19 04:32N 34°33' E 135°24'4 3.9
2014-Dec-19 03:33N 34°34' E 135°20'3 3.1
2014-Dec-19 02:33N 34°35' E 135°16'6 5.9
2014-Dec-19 01:33N 34°39' E 135°11'6 5.9
2014-Dec-19 00:33N 34°37' E 135°18'6 6.2
2014-Dec-18 23:33N 34°34' E 135°24'8 8.0
2014-Dec-18 22:33N 34°31' E 135°15'1311.8
2014-Dec-18 21:30N 34°22' E 135°04'1111.6
2014-Dec-18 20:33N 34°12' E 134°60'7 6.7
2014-Dec-18 19:33N 34°19' E 134°59'1413.8
2014-Dec-18 18:33N 34°31' E 135°06'9 8.6
2014-Dec-18 17:34N 34°39' E 135°10'0 0.0
2014-Dec-18 02:34N 34°39' E 135°10'0 0.0
2014-Dec-18 01:34N 34°39' E 135°10'4 0.2
2014-Dec-17 01:33N 34°40' E 135°15'7 6.9
2014-Dec-17 00:33N 34°33' E 135°17'1312.7
2014-Dec-16 23:33N 34°24' E 135°06'1312.6
2014-Dec-16 22:33N 34°13' E 134°60'5 0.2
2014-Dec-16 02:30N 34°18' E 134°58'1313.5
2014-Dec-16 01:33N 34°28' E 135°07'1412.7
2014-Dec-16 00:26N 34°33' E 135°23'1 0.6
2014-Dec-15 23:33N 34°34' E 135°23'1212.0
2014-Dec-15 22:33N 34°39' E 135°10'1 0.1
2014-Dec-15 02:33N 34°40' E 135°11'1110.6
2014-Dec-15 01:33N 34°35' E 135°22'2 2.1
2014-Dec-15 00:33N 34°33' E 135°21'1111.1
2014-Dec-14 23:33N 34°27' E 135°09'1514.7
2014-Dec-14 22:33N 34°15' E 134°59'2 1.6
2014-Dec-14 21:33N 34°14' E 135°00'11 0.6
2014-Dec-14 03:24N 34°25' E 134°58'1112.9
2014-Dec-14 02:32N 34°36' E 135°03'5 4.7
2014-Dec-14 01:33N 34°36' E 134°58'7 7.2
2014-Dec-14 00:33N 34°35' E 135°07'5 5.0
2014-Dec-13 23:33N 34°39' E 135°10'0 0.0
2014-Dec-13 00:13N 34°39' E 135°10'2 2.3
2014-Dec-12 23:33N 34°40' E 135°11'9 8.6
2014-Dec-12 22:33N 34°34' E 135°18'9 9.1
2014-Dec-12 21:33N 34°28' E 135°11'1312.3
2014-Dec-12 20:27N 34°18' E 134°59'5 5.7
2014-Dec-12 19:32N 34°13' E 134°58'1515.0
2014-Dec-12 18:33N 34°27' E 135°03'1313.5
2014-Dec-12 17:33N 34°39' E 135°10'0 0.0
2014-Dec-11 09:16N 34°39' E 135°10'1013.9
2014-Dec-11 08:33N 34°29' E 135°07'1413.3
2014-Dec-11 07:28N 34°16' E 134°59'8 8.4
2014-Dec-11 06:33N 34°24' E 135°02'1313.3
2014-Dec-11 05:33N 34°31' E 135°15'8 7.8
2014-Dec-11 04:33N 34°33' E 135°24'1 1.1
2014-Dec-11 03:33N 34°33' E 135°25'1 0.9
2014-Dec-11 02:33N 34°34' E 135°26'5 5.4
2014-Dec-11 01:32N 34°34' E 135°19'9 9.4
2014-Dec-11 00:34N 34°39' E 135°10'  
Track history (hours):
 
Tides and Currents Weather Stations Pressure Air Temp Water Temp Dewpoint Dewpoint Depression Visibility Wind Speed Wind Dir Waves Ship Positions

Naikai2

Last reported at 2014-Dec-21 00:17 UTC. Time now 2014-Dec-21 01:54 UTC.
Position N 34°38' E 135°10'.

Length 28 m; draft 2.2 m.

Type: Other ship. MMSI: 431000283.

Date/timePositionNaut miles runAvg speedWind from/ knotsBaromVisibWave heightAir tempDewpointWater temp
2014-Dec-21 00:17N 34°38' E 135°10'811.4
2014-Dec-20 23:33N 34°35' E 135°20'5 5.2
2014-Dec-20 22:32N 34°33' E 135°25'7 7.2
2014-Dec-20 21:33N 34°32' E 135°17'1312.1
2014-Dec-20 20:29N 34°23' E 135°06'1212.1
2014-Dec-20 19:32N 34°12' E 135°00'8 7.8
2014-Dec-20 18:33N 34°20' E 134°57'3 0.2
2014-Dec-20 07:22N 34°21' E 135°00'1214.2
2014-Dec-20 06:33N 34°29' E 135°10'1111.4
2014-Dec-20 05:33N 34°33' E 135°23'0 0.4
2014-Dec-20 04:33N 34°34' E 135°23'1212.1
2014-Dec-20 03:33N 34°39' E 135°10'0 0.1
2014-Dec-20 02:33N 34°39' E 135°10'0 0.0
2014-Dec-20 01:33N 34°39' E 135°10'1 0.0
2014-Dec-19 05:34N 34°38' E 135°10'1212.2
2014-Dec-19 04:32N 34°33' E 135°24'4 3.9
2014-Dec-19 03:33N 34°34' E 135°20'3 3.1
2014-Dec-19 02:33N 34°35' E 135°16'6 5.9
2014-Dec-19 01:33N 34°39' E 135°11'6 5.9
2014-Dec-19 00:33N 34°37' E 135°18'6 6.2
2014-Dec-18 23:33N 34°34' E 135°24'8 8.0
2014-Dec-18 22:33N 34°31' E 135°15'1311.8
2014-Dec-18 21:30N 34°22' E 135°04'1111.6
2014-Dec-18 20:33N 34°12' E 134°60'7 6.7
2014-Dec-18 19:33N 34°19' E 134°59'1413.8
2014-Dec-18 18:33N 34°31' E 135°06'9 8.6
2014-Dec-18 17:34N 34°39' E 135°10'0 0.0
2014-Dec-18 02:34N 34°39' E 135°10'0 0.0
2014-Dec-18 01:34N 34°39' E 135°10'4 0.2
2014-Dec-17 01:33N 34°40' E 135°15'7 6.9
2014-Dec-17 00:33N 34°33' E 135°17'1312.7
2014-Dec-16 23:33N 34°24' E 135°06'1312.6
2014-Dec-16 22:33N 34°13' E 134°60'5 0.2
2014-Dec-16 02:30N 34°18' E 134°58'1313.5
2014-Dec-16 01:33N 34°28' E 135°07'1412.7
2014-Dec-16 00:26N 34°33' E 135°23'1 0.6
2014-Dec-15 23:33N 34°34' E 135°23'1212.0
2014-Dec-15 22:33N 34°39' E 135°10'1 0.1
2014-Dec-15 02:33N 34°40' E 135°11'1110.6
2014-Dec-15 01:33N 34°35' E 135°22'2 2.1
2014-Dec-15 00:33N 34°33' E 135°21'1111.1
2014-Dec-14 23:33N 34°27' E 135°09'1514.7
2014-Dec-14 22:33N 34°15' E 134°59'2 1.6
2014-Dec-14 21:33N 34°14' E 135°00'11 0.6
2014-Dec-14 03:24N 34°25' E 134°58'1112.9
2014-Dec-14 02:32N 34°36' E 135°03'5 4.7
2014-Dec-14 01:33N 34°36' E 134°58'7 7.2
2014-Dec-14 00:33N 34°35' E 135°07'5 5.0
2014-Dec-13 23:33N 34°39' E 135°10'0 0.0
2014-Dec-13 00:13N 34°39' E 135°10'2 2.3
2014-Dec-12 23:33N 34°40' E 135°11'9 8.6
2014-Dec-12 22:33N 34°34' E 135°18'9 9.1
2014-Dec-12 21:33N 34°28' E 135°11'1312.3
2014-Dec-12 20:27N 34°18' E 134°59'5 5.7
2014-Dec-12 19:32N 34°13' E 134°58'1515.0
2014-Dec-12 18:33N 34°27' E 135°03'1313.5
2014-Dec-12 17:33N 34°39' E 135°10'0 0.0
2014-Dec-11 09:16N 34°39' E 135°10'1013.9
2014-Dec-11 08:33N 34°29' E 135°07'1413.3
2014-Dec-11 07:28N 34°16' E 134°59'8 8.4
2014-Dec-11 06:33N 34°24' E 135°02'1313.3
2014-Dec-11 05:33N 34°31' E 135°15'8 7.8
2014-Dec-11 04:33N 34°33' E 135°24'1 1.1
2014-Dec-11 03:33N 34°33' E 135°25'1 0.9
2014-Dec-11 02:33N 34°34' E 135°26'5 5.4
2014-Dec-11 01:32N 34°34' E 135°19'9 9.4
2014-Dec-11 00:34N 34°39' E 135°10'  

Dump ship's entire track history